sensor_id;sensor_type;location;lat;lon;timestamp;P1;durP1;ratioP1;P2;durP2;ratioP2
14167;SDS011;7163;50.626;12.922;2022-11-18T00:02:58;15.80;;;9.70;;
14167;SDS011;7163;50.626;12.922;2022-11-18T00:07:59;14.80;;;8.90;;
14167;SDS011;7163;50.626;12.922;2022-11-18T00:12:59;12.90;;;8.87;;
14167;SDS011;7163;50.626;12.922;2022-11-18T00:18:18;14.37;;;8.60;;
14167;SDS011;7163;50.626;12.922;2022-11-18T00:23:18;13.17;;;9.10;;
14167;SDS011;7163;50.626;12.922;2022-11-18T00:28:19;13.10;;;8.70;;
14167;SDS011;7163;50.626;12.922;2022-11-18T00:33:19;13.80;;;8.90;;
14167;SDS011;7163;50.626;12.922;2022-11-18T00:38:20;12.80;;;7.87;;
14167;SDS011;7163;50.626;12.922;2022-11-18T00:43:20;14.87;;;9.67;;
14167;SDS011;7163;50.626;12.922;2022-11-18T00:48:20;12.87;;;8.70;;
14167;SDS011;7163;50.626;12.922;2022-11-18T00:53:22;13.37;;;8.00;;
14167;SDS011;7163;50.626;12.922;2022-11-18T00:58:23;16.57;;;9.40;;
14167;SDS011;7163;50.626;12.922;2022-11-18T01:03:23;14.70;;;10.27;;
14167;SDS011;7163;50.626;12.922;2022-11-18T01:08:24;13.83;;;8.63;;
14167;SDS011;7163;50.626;12.922;2022-11-18T01:13:25;16.53;;;10.73;;
14167;SDS011;7163;50.626;12.922;2022-11-18T01:18:29;16.13;;;9.87;;
14167;SDS011;7163;50.626;12.922;2022-11-18T01:23:32;14.13;;;9.47;;
14167;SDS011;7163;50.626;12.922;2022-11-18T01:28:32;16.03;;;10.33;;
14167;SDS011;7163;50.626;12.922;2022-11-18T01:33:33;13.03;;;8.33;;
14167;SDS011;7163;50.626;12.922;2022-11-18T01:38:33;13.40;;;8.60;;
14167;SDS011;7163;50.626;12.922;2022-11-18T01:43:49;14.07;;;8.30;;
14167;SDS011;7163;50.626;12.922;2022-11-18T01:48:56;12.23;;;8.07;;
14167;SDS011;7163;50.626;12.922;2022-11-18T01:54:02;17.00;;;9.83;;
14167;SDS011;7163;50.626;12.922;2022-11-18T01:59:14;13.97;;;9.37;;
14167;SDS011;7163;50.626;12.922;2022-11-18T02:04:19;14.40;;;9.33;;
14167;SDS011;7163;50.626;12.922;2022-11-18T02:09:20;10.37;;;7.13;;
14167;SDS011;7163;50.626;12.922;2022-11-18T02:14:40;11.77;;;7.97;;
14167;SDS011;7163;50.626;12.922;2022-11-18T02:31:00;17.60;;;9.97;;
14167;SDS011;7163;50.626;12.922;2022-11-18T02:36:07;18.93;;;10.87;;
14167;SDS011;7163;50.626;12.922;2022-11-18T02:41:13;12.33;;;8.63;;
14167;SDS011;7163;50.626;12.922;2022-11-18T02:46:18;10.80;;;7.57;;
14167;SDS011;7163;50.626;12.922;2022-11-18T02:51:24;13.43;;;9.07;;
14167;SDS011;7163;50.626;12.922;2022-11-18T02:56:26;13.57;;;9.53;;
14167;SDS011;7163;50.626;12.922;2022-11-18T03:01:28;17.70;;;9.47;;
14167;SDS011;7163;50.626;12.922;2022-11-18T03:06:37;12.87;;;8.10;;
14167;SDS011;7163;50.626;12.922;2022-11-18T03:11:51;18.67;;;11.17;;
14167;SDS011;7163;50.626;12.922;2022-11-18T03:17:08;17.00;;;10.57;;
14167;SDS011;7163;50.626;12.922;2022-11-18T03:22:21;17.63;;;10.20;;
14167;SDS011;7163;50.626;12.922;2022-11-18T03:27:30;16.20;;;9.47;;
14167;SDS011;7163;50.626;12.922;2022-11-18T03:32:41;14.43;;;9.33;;
14167;SDS011;7163;50.626;12.922;2022-11-18T03:37:43;18.67;;;10.13;;
14167;SDS011;7163;50.626;12.922;2022-11-18T03:42:45;18.30;;;11.30;;
14167;SDS011;7163;50.626;12.922;2022-11-18T03:47:59;15.17;;;9.83;;
14167;SDS011;7163;50.626;12.922;2022-11-18T03:53:07;27.03;;;13.20;;
14167;SDS011;7163;50.626;12.922;2022-11-18T03:58:10;17.63;;;11.53;;
14167;SDS011;7163;50.626;12.922;2022-11-18T04:03:15;17.70;;;10.70;;
14167;SDS011;7163;50.626;12.922;2022-11-18T04:08:18;20.07;;;11.17;;
14167;SDS011;7163;50.626;12.922;2022-11-18T04:13:29;18.23;;;12.10;;
14167;SDS011;7163;50.626;12.922;2022-11-18T04:18:31;22.43;;;12.93;;
14167;SDS011;7163;50.626;12.922;2022-11-18T04:23:32;28.73;;;16.43;;
14167;SDS011;7163;50.626;12.922;2022-11-18T04:28:32;30.47;;;16.43;;
14167;SDS011;7163;50.626;12.922;2022-11-18T04:33:32;31.73;;;16.17;;
14167;SDS011;7163;50.626;12.922;2022-11-18T04:38:33;29.53;;;16.50;;
14167;SDS011;7163;50.626;12.922;2022-11-18T04:43:33;33.03;;;16.70;;
14167;SDS011;7163;50.626;12.922;2022-11-18T04:48:34;25.47;;;15.10;;
14167;SDS011;7163;50.626;12.922;2022-11-18T04:53:34;22.00;;;12.73;;
14167;SDS011;7163;50.626;12.922;2022-11-18T04:58:34;32.30;;;16.17;;
14167;SDS011;7163;50.626;12.922;2022-11-18T05:03:35;40.57;;;19.17;;
14167;SDS011;7163;50.626;12.922;2022-11-18T05:08:35;36.77;;;18.97;;
14167;SDS011;7163;50.626;12.922;2022-11-18T05:13:35;30.83;;;15.67;;
14167;SDS011;7163;50.626;12.922;2022-11-18T05:18:36;29.10;;;16.27;;
14167;SDS011;7163;50.626;12.922;2022-11-18T05:23:36;35.50;;;17.03;;
14167;SDS011;7163;50.626;12.922;2022-11-18T05:28:37;41.80;;;16.53;;
14167;SDS011;7163;50.626;12.922;2022-11-18T05:33:38;29.77;;;13.57;;
14167;SDS011;7163;50.626;12.922;2022-11-18T05:38:38;30.17;;;15.10;;
14167;SDS011;7163;50.626;12.922;2022-11-18T05:43:39;23.00;;;13.70;;
14167;SDS011;7163;50.626;12.922;2022-11-18T05:48:39;136.73;;;54.47;;
14167;SDS011;7163;50.626;12.922;2022-11-18T05:53:40;70.37;;;33.57;;
14167;SDS011;7163;50.626;12.922;2022-11-18T05:58:40;71.50;;;35.83;;
14167;SDS011;7163;50.626;12.922;2022-11-18T06:03:40;56.50;;;28.50;;
14167;SDS011;7163;50.626;12.922;2022-11-18T06:08:43;31.33;;;18.27;;
14167;SDS011;7163;50.626;12.922;2022-11-18T06:13:49;23.70;;;14.00;;
14167;SDS011;7163;50.626;12.922;2022-11-18T06:19:07;23.53;;;15.60;;
14167;SDS011;7163;50.626;12.922;2022-11-18T06:24:07;28.73;;;16.97;;
14167;SDS011;7163;50.626;12.922;2022-11-18T06:29:09;24.90;;;15.53;;
14167;SDS011;7163;50.626;12.922;2022-11-18T06:34:10;21.83;;;14.07;;
14167;SDS011;7163;50.626;12.922;2022-11-18T06:39:10;24.90;;;15.17;;
14167;SDS011;7163;50.626;12.922;2022-11-18T06:44:11;27.50;;;16.97;;
14167;SDS011;7163;50.626;12.922;2022-11-18T06:49:11;32.93;;;19.57;;
14167;SDS011;7163;50.626;12.922;2022-11-18T06:54:12;59.33;;;33.23;;
14167;SDS011;7163;50.626;12.922;2022-11-18T06:59:12;55.47;;;30.30;;
14167;SDS011;7163;50.626;12.922;2022-11-18T07:04:13;43.63;;;25.17;;
14167;SDS011;7163;50.626;12.922;2022-11-18T07:09:13;51.67;;;27.30;;
14167;SDS011;7163;50.626;12.922;2022-11-18T07:14:14;36.63;;;23.10;;
14167;SDS011;7163;50.626;12.922;2022-11-18T07:19:14;56.03;;;31.60;;
14167;SDS011;7163;50.626;12.922;2022-11-18T07:24:15;52.53;;;33.13;;
14167;SDS011;7163;50.626;12.922;2022-11-18T07:29:15;60.37;;;38.63;;
14167;SDS011;7163;50.626;12.922;2022-11-18T07:34:16;52.83;;;32.13;;
14167;SDS011;7163;50.626;12.922;2022-11-18T07:39:16;58.97;;;36.43;;
14167;SDS011;7163;50.626;12.922;2022-11-18T07:44:17;46.93;;;29.97;;
14167;SDS011;7163;50.626;12.922;2022-11-18T07:49:17;46.13;;;29.57;;
14167;SDS011;7163;50.626;12.922;2022-11-18T07:54:18;36.80;;;21.03;;
14167;SDS011;7163;50.626;12.922;2022-11-18T07:59:19;38.73;;;20.03;;
14167;SDS011;7163;50.626;12.922;2022-11-18T08:04:20;38.20;;;20.13;;
14167;SDS011;7163;50.626;12.922;2022-11-18T08:09:20;46.93;;;20.13;;
14167;SDS011;7163;50.626;12.922;2022-11-18T08:14:21;41.00;;;18.40;;
14167;SDS011;7163;50.626;12.922;2022-11-18T08:19:23;54.23;;;22.43;;
14167;SDS011;7163;50.626;12.922;2022-11-18T08:24:23;45.03;;;17.83;;
14167;SDS011;7163;50.626;12.922;2022-11-18T08:29:23;37.80;;;16.37;;
14167;SDS011;7163;50.626;12.922;2022-11-18T08:34:24;32.17;;;14.17;;
14167;SDS011;7163;50.626;12.922;2022-11-18T08:39:24;41.93;;;17.10;;
14167;SDS011;7163;50.626;12.922;2022-11-18T08:44:25;31.60;;;15.57;;
14167;SDS011;7163;50.626;12.922;2022-11-18T08:49:25;31.40;;;15.50;;
14167;SDS011;7163;50.626;12.922;2022-11-18T08:54:26;36.17;;;18.23;;
14167;SDS011;7163;50.626;12.922;2022-11-18T08:59:26;34.27;;;15.60;;
14167;SDS011;7163;50.626;12.922;2022-11-18T09:04:26;43.67;;;17.20;;
14167;SDS011;7163;50.626;12.922;2022-11-18T09:09:27;26.40;;;13.30;;
14167;SDS011;7163;50.626;12.922;2022-11-18T09:14:28;46.73;;;16.70;;
14167;SDS011;7163;50.626;12.922;2022-11-18T09:19:28;47.70;;;15.20;;
14167;SDS011;7163;50.626;12.922;2022-11-18T09:24:28;33.20;;;15.23;;
14167;SDS011;7163;50.626;12.922;2022-11-18T09:29:29;46.73;;;15.27;;
14167;SDS011;7163;50.626;12.922;2022-11-18T09:34:29;36.43;;;16.30;;
14167;SDS011;7163;50.626;12.922;2022-11-18T09:39:30;28.27;;;14.97;;
14167;SDS011;7163;50.626;12.922;2022-11-18T09:49:50;23.37;;;12.17;;
14167;SDS011;7163;50.626;12.922;2022-11-18T09:54:51;27.43;;;16.13;;
14167;SDS011;7163;50.626;12.922;2022-11-18T09:59:51;20.73;;;12.30;;
14167;SDS011;7163;50.626;12.922;2022-11-18T10:04:53;19.87;;;13.00;;
14167;SDS011;7163;50.626;12.922;2022-11-18T10:09:55;11.07;;;7.57;;
14167;SDS011;7163;50.626;12.922;2022-11-18T10:15:00;13.33;;;7.53;;
14167;SDS011;7163;50.626;12.922;2022-11-18T10:25:46;15.03;;;9.57;;
14167;SDS011;7163;50.626;12.922;2022-11-18T10:30:46;16.43;;;10.17;;
14167;SDS011;7163;50.626;12.922;2022-11-18T10:35:47;19.47;;;12.53;;
14167;SDS011;7163;50.626;12.922;2022-11-18T10:45:51;16.50;;;10.40;;
14167;SDS011;7163;50.626;12.922;2022-11-18T10:50:51;17.50;;;11.90;;
14167;SDS011;7163;50.626;12.922;2022-11-18T10:55:58;21.90;;;11.63;;
14167;SDS011;7163;50.626;12.922;2022-11-18T11:01:07;12.10;;;8.50;;
14167;SDS011;7163;50.626;12.922;2022-11-18T11:22:06;19.63;;;11.13;;
14167;SDS011;7163;50.626;12.922;2022-11-18T11:27:16;15.93;;;10.00;;
14167;SDS011;7163;50.626;12.922;2022-11-18T12:14:34;18.70;;;12.30;;
14167;SDS011;7163;50.626;12.922;2022-11-18T12:19:39;21.87;;;14.53;;
14167;SDS011;7163;50.626;12.922;2022-11-18T12:24:40;25.47;;;10.33;;
14167;SDS011;7163;50.626;12.922;2022-11-18T12:34:48;18.23;;;11.00;;
14167;SDS011;7163;50.626;12.922;2022-11-18T12:39:59;24.97;;;11.67;;
14167;SDS011;7163;50.626;12.922;2022-11-18T12:44:59;14.20;;;8.73;;
14167;SDS011;7163;50.626;12.922;2022-11-18T12:50:47;6.93;;;4.37;;
14167;SDS011;7163;50.626;12.922;2022-11-18T12:55:48;6.83;;;4.33;;
14167;SDS011;7163;50.626;12.922;2022-11-18T13:00:48;7.73;;;4.10;;
14167;SDS011;7163;50.626;12.922;2022-11-18T13:05:57;8.53;;;4.77;;
14167;SDS011;7163;50.626;12.922;2022-11-18T13:11:03;7.13;;;4.10;;
14167;SDS011;7163;50.626;12.922;2022-11-18T13:16:25;7.40;;;4.77;;
14167;SDS011;7163;50.626;12.922;2022-11-18T13:21:44;25.20;;;11.07;;
14167;SDS011;7163;50.626;12.922;2022-11-18T13:27:19;43.83;;;14.27;;
14167;SDS011;7163;50.626;12.922;2022-11-18T13:32:30;19.13;;;7.67;;
14167;SDS011;7163;50.626;12.922;2022-11-18T13:37:34;33.57;;;14.23;;
14167;SDS011;7163;50.626;12.922;2022-11-18T13:42:35;29.40;;;12.73;;
14167;SDS011;7163;50.626;12.922;2022-11-18T13:48:00;50.70;;;20.40;;
14167;SDS011;7163;50.626;12.922;2022-11-18T13:58:31;13.50;;;7.23;;
14167;SDS011;7163;50.626;12.922;2022-11-18T14:03:36;13.10;;;7.87;;
14167;SDS011;7163;50.626;12.922;2022-11-18T14:08:45;18.00;;;8.83;;
14167;SDS011;7163;50.626;12.922;2022-11-18T14:13:47;18.07;;;9.43;;
14167;SDS011;7163;50.626;12.922;2022-11-18T14:18:49;20.90;;;11.30;;
14167;SDS011;7163;50.626;12.922;2022-11-18T14:23:53;18.83;;;10.53;;
14167;SDS011;7163;50.626;12.922;2022-11-18T14:28:54;20.73;;;11.33;;
14167;SDS011;7163;50.626;12.922;2022-11-18T14:39:25;23.80;;;11.73;;
14167;SDS011;7163;50.626;12.922;2022-11-18T14:44:27;18.73;;;9.57;;
14167;SDS011;7163;50.626;12.922;2022-11-18T14:49:28;18.83;;;9.27;;
14167;SDS011;7163;50.626;12.922;2022-11-18T14:54:30;18.33;;;9.77;;
14167;SDS011;7163;50.626;12.922;2022-11-18T14:59:31;14.50;;;8.50;;
14167;SDS011;7163;50.626;12.922;2022-11-18T15:04:31;13.17;;;7.97;;
14167;SDS011;7163;50.626;12.922;2022-11-18T15:09:32;12.77;;;6.80;;
14167;SDS011;7163;50.626;12.922;2022-11-18T15:14:32;17.07;;;6.87;;
14167;SDS011;7163;50.626;12.922;2022-11-18T15:19:34;14.10;;;7.87;;
14167;SDS011;7163;50.626;12.922;2022-11-18T15:24:36;12.13;;;7.47;;
14167;SDS011;7163;50.626;12.922;2022-11-18T15:29:36;13.57;;;8.20;;
14167;SDS011;7163;50.626;12.922;2022-11-18T15:34:37;14.77;;;8.40;;
14167;SDS011;7163;50.626;12.922;2022-11-18T15:39:38;15.53;;;9.17;;
14167;SDS011;7163;50.626;12.922;2022-11-18T15:44:38;25.43;;;12.37;;
14167;SDS011;7163;50.626;12.922;2022-11-18T15:49:39;28.57;;;14.27;;
14167;SDS011;7163;50.626;12.922;2022-11-18T15:54:42;37.27;;;20.07;;
14167;SDS011;7163;50.626;12.922;2022-11-18T15:59:43;42.33;;;22.67;;
14167;SDS011;7163;50.626;12.922;2022-11-18T16:04:43;43.67;;;22.67;;
14167;SDS011;7163;50.626;12.922;2022-11-18T16:09:44;42.67;;;22.13;;
14167;SDS011;7163;50.626;12.922;2022-11-18T16:15:03;45.07;;;22.80;;
14167;SDS011;7163;50.626;12.922;2022-11-18T16:20:23;45.43;;;22.87;;
14167;SDS011;7163;50.626;12.922;2022-11-18T16:25:24;52.57;;;26.30;;
14167;SDS011;7163;50.626;12.922;2022-11-18T16:30:29;47.77;;;23.20;;
14167;SDS011;7163;50.626;12.922;2022-11-18T16:35:47;40.53;;;20.63;;
14167;SDS011;7163;50.626;12.922;2022-11-18T16:40:54;53.57;;;27.57;;
14167;SDS011;7163;50.626;12.922;2022-11-18T16:45:55;52.40;;;27.60;;
14167;SDS011;7163;50.626;12.922;2022-11-18T16:51:01;50.13;;;26.07;;
14167;SDS011;7163;50.626;12.922;2022-11-18T16:56:22;125.00;;;41.70;;
14167;SDS011;7163;50.626;12.922;2022-11-18T17:01:24;50.73;;;23.57;;
14167;SDS011;7163;50.626;12.922;2022-11-18T17:06:25;73.93;;;31.07;;
14167;SDS011;7163;50.626;12.922;2022-11-18T17:11:26;49.57;;;26.50;;
14167;SDS011;7163;50.626;12.922;2022-11-18T17:16:26;59.40;;;28.27;;
14167;SDS011;7163;50.626;12.922;2022-11-18T17:21:27;202.33;;;75.00;;
14167;SDS011;7163;50.626;12.922;2022-11-18T17:26:28;57.50;;;29.77;;
14167;SDS011;7163;50.626;12.922;2022-11-18T17:31:29;59.07;;;30.80;;
14167;SDS011;7163;50.626;12.922;2022-11-18T17:36:29;57.03;;;29.17;;
14167;SDS011;7163;50.626;12.922;2022-11-18T17:41:33;61.80;;;31.23;;
14167;SDS011;7163;50.626;12.922;2022-11-18T17:46:52;57.20;;;29.83;;
14167;SDS011;7163;50.626;12.922;2022-11-18T17:51:53;56.20;;;29.53;;
14167;SDS011;7163;50.626;12.922;2022-11-18T17:56:53;52.87;;;27.47;;
14167;SDS011;7163;50.626;12.922;2022-11-18T18:01:56;62.60;;;29.77;;
14167;SDS011;7163;50.626;12.922;2022-11-18T18:06:57;60.47;;;29.33;;
14167;SDS011;7163;50.626;12.922;2022-11-18T18:12:00;52.63;;;25.97;;
14167;SDS011;7163;50.626;12.922;2022-11-18T18:17:21;57.87;;;28.17;;
14167;SDS011;7163;50.626;12.922;2022-11-18T18:22:21;57.00;;;27.30;;
14167;SDS011;7163;50.626;12.922;2022-11-18T18:27:21;54.43;;;27.53;;
14167;SDS011;7163;50.626;12.922;2022-11-18T18:32:22;58.07;;;27.73;;
14167;SDS011;7163;50.626;12.922;2022-11-18T18:37:22;53.50;;;26.80;;
14167;SDS011;7163;50.626;12.922;2022-11-18T18:42:23;61.90;;;29.13;;
14167;SDS011;7163;50.626;12.922;2022-11-18T18:47:23;72.40;;;32.67;;
14167;SDS011;7163;50.626;12.922;2022-11-18T18:52:23;60.33;;;29.40;;
14167;SDS011;7163;50.626;12.922;2022-11-18T18:57:26;61.27;;;29.70;;
14167;SDS011;7163;50.626;12.922;2022-11-18T19:02:28;67.03;;;29.33;;
14167;SDS011;7163;50.626;12.922;2022-11-18T19:07:28;65.00;;;29.87;;
14167;SDS011;7163;50.626;12.922;2022-11-18T19:12:30;73.93;;;34.73;;
14167;SDS011;7163;50.626;12.922;2022-11-18T19:17:42;69.83;;;31.33;;
14167;SDS011;7163;50.626;12.922;2022-11-18T19:22:42;67.60;;;32.37;;
14167;SDS011;7163;50.626;12.922;2022-11-18T19:27:43;69.20;;;32.80;;
14167;SDS011;7163;50.626;12.922;2022-11-18T19:32:44;68.30;;;32.43;;
14167;SDS011;7163;50.626;12.922;2022-11-18T19:37:54;57.97;;;28.03;;
14167;SDS011;7163;50.626;12.922;2022-11-18T19:42:55;59.63;;;26.40;;
14167;SDS011;7163;50.626;12.922;2022-11-18T19:47:55;55.90;;;26.27;;
14167;SDS011;7163;50.626;12.922;2022-11-18T19:52:57;54.57;;;27.07;;
14167;SDS011;7163;50.626;12.922;2022-11-18T19:58:18;62.37;;;28.37;;
14167;SDS011;7163;50.626;12.922;2022-11-18T20:03:18;60.23;;;29.17;;
14167;SDS011;7163;50.626;12.922;2022-11-18T20:08:19;61.20;;;28.93;;
14167;SDS011;7163;50.626;12.922;2022-11-18T20:13:21;55.87;;;25.90;;
14167;SDS011;7163;50.626;12.922;2022-11-18T20:18:21;60.27;;;29.13;;
14167;SDS011;7163;50.626;12.922;2022-11-18T20:23:24;59.93;;;31.30;;
14167;SDS011;7163;50.626;12.922;2022-11-18T20:28:24;63.93;;;31.67;;
14167;SDS011;7163;50.626;12.922;2022-11-18T20:33:25;62.63;;;28.67;;
14167;SDS011;7163;50.626;12.922;2022-11-18T20:38:26;60.50;;;27.00;;
14167;SDS011;7163;50.626;12.922;2022-11-18T20:43:26;51.10;;;26.00;;
14167;SDS011;7163;50.626;12.922;2022-11-18T20:48:26;56.10;;;27.63;;
14167;SDS011;7163;50.626;12.922;2022-11-18T20:53:27;46.67;;;23.63;;
14167;SDS011;7163;50.626;12.922;2022-11-18T20:58:27;51.43;;;23.00;;
14167;SDS011;7163;50.626;12.922;2022-11-18T21:03:28;49.50;;;22.93;;
14167;SDS011;7163;50.626;12.922;2022-11-18T21:08:28;50.37;;;22.80;;
14167;SDS011;7163;50.626;12.922;2022-11-18T21:13:29;49.03;;;23.57;;
14167;SDS011;7163;50.626;12.922;2022-11-18T21:18:48;44.70;;;20.87;;
14167;SDS011;7163;50.626;12.922;2022-11-18T21:23:52;50.77;;;25.50;;
14167;SDS011;7163;50.626;12.922;2022-11-18T21:28:53;41.53;;;20.97;;
14167;SDS011;7163;50.626;12.922;2022-11-18T21:33:55;46.13;;;21.73;;
14167;SDS011;7163;50.626;12.922;2022-11-18T21:38:56;48.50;;;23.07;;
14167;SDS011;7163;50.626;12.922;2022-11-18T21:43:57;56.00;;;23.93;;
14167;SDS011;7163;50.626;12.922;2022-11-18T21:48:58;43.13;;;21.37;;
14167;SDS011;7163;50.626;12.922;2022-11-18T21:53:58;44.83;;;20.80;;
14167;SDS011;7163;50.626;12.922;2022-11-18T21:58:59;38.93;;;19.80;;
14167;SDS011;7163;50.626;12.922;2022-11-18T22:04:01;44.97;;;19.43;;
14167;SDS011;7163;50.626;12.922;2022-11-18T22:09:02;40.43;;;19.50;;
14167;SDS011;7163;50.626;12.922;2022-11-18T22:14:03;41.77;;;18.73;;
14167;SDS011;7163;50.626;12.922;2022-11-18T22:19:05;39.07;;;17.77;;
14167;SDS011;7163;50.626;12.922;2022-11-18T22:24:05;33.47;;;17.77;;
14167;SDS011;7163;50.626;12.922;2022-11-18T22:29:06;33.27;;;16.87;;
14167;SDS011;7163;50.626;12.922;2022-11-18T22:34:07;31.90;;;16.63;;
14167;SDS011;7163;50.626;12.922;2022-11-18T22:39:08;31.00;;;15.87;;
14167;SDS011;7163;50.626;12.922;2022-11-18T22:44:09;28.63;;;13.90;;
14167;SDS011;7163;50.626;12.922;2022-11-18T22:49:11;25.90;;;14.10;;
14167;SDS011;7163;50.626;12.922;2022-11-18T22:54:11;26.63;;;14.37;;
14167;SDS011;7163;50.626;12.922;2022-11-18T22:59:12;25.70;;;13.63;;
14167;SDS011;7163;50.626;12.922;2022-11-18T23:04:13;25.77;;;13.87;;
14167;SDS011;7163;50.626;12.922;2022-11-18T23:09:13;22.83;;;12.57;;
14167;SDS011;7163;50.626;12.922;2022-11-18T23:14:14;22.97;;;12.13;;
14167;SDS011;7163;50.626;12.922;2022-11-18T23:19:15;27.17;;;14.37;;
14167;SDS011;7163;50.626;12.922;2022-11-18T23:24:16;22.87;;;13.57;;
14167;SDS011;7163;50.626;12.922;2022-11-18T23:29:17;21.83;;;12.17;;
14167;SDS011;7163;50.626;12.922;2022-11-18T23:34:19;21.93;;;11.93;;
14167;SDS011;7163;50.626;12.922;2022-11-18T23:39:19;26.97;;;12.97;;
14167;SDS011;7163;50.626;12.922;2022-11-18T23:44:20;25.23;;;13.10;;
14167;SDS011;7163;50.626;12.922;2022-11-18T23:49:40;24.37;;;12.93;;
14167;SDS011;7163;50.626;12.922;2022-11-18T23:54:40;25.50;;;13.13;;
14167;SDS011;7163;50.626;12.922;2022-11-18T23:59:41;26.53;;;13.17;;
